Villa Clementina, Puerto Rico
Current Conditions -  °F | °C
As of 1:56 PM on Thursday 18 Dec 2014 (Local Time) from TJSJ Reporting Station
Scattered Clouds Scattered Clouds  
Wind Chill: 82°   Ceiling: Unl
Heat Index: 86°   Visibility: 10mi
Dew Point: 70°   Wind: 13mph
Humidity: 67%   Direction: 10°N
Pressure: 29.99"   Gusts: NA
Location:  18.3866°N, 66.1135°W
Report Text: TJSJ 181756Z 01011KT 10SM SCT028 SCT040 SCT080 28/21 A2999 RMK AO2 SLP153 VCSH SE T02780211 10283 20256 58025
Loading
Personal Weather Stations






























Interactive Weather Map New forecast layout! Learn more

10-Day Weather Forecast

Advertisements
Track Severe Weather on mobile